createdAt,value
2019-05-29T00:03:39.402Z,11.65
2019-05-29T00:08:44.633Z,11.71
2019-05-29T00:13:50.262Z,11.78
2019-05-29T00:18:58.372Z,11.79
2019-05-29T00:24:03.901Z,11.73
2019-05-29T00:29:09.675Z,11.74
2019-05-29T00:34:15.304Z,11.77
2019-05-29T00:39:21.664Z,11.79
2019-05-29T00:44:34.338Z,11.76
2019-05-29T00:49:34.135Z,11.90
2019-05-29T00:54:39.501Z,11.88
2019-05-29T00:59:44.837Z,11.82
2019-05-29T01:04:50.053Z,11.83
2019-05-29T01:09:55.368Z,11.87
2019-05-29T01:15:00.673Z,11.83
2019-05-29T01:20:06.998Z,11.74
2019-05-29T01:25:12.478Z,11.79
2019-05-29T01:30:18.997Z,11.67
2019-05-29T01:35:24.529Z,11.72
2019-05-29T01:40:29.973Z,11.72
2019-05-29T01:45:35.233Z,11.69
2019-05-29T01:50:40.556Z,11.53
2019-05-29T01:55:46.155Z,11.41
2019-05-29T02:00:51.933Z,11.40
2019-05-29T02:05:57.618Z,11.38
2019-05-29T02:11:03.096Z,11.51
2019-05-29T02:16:08.726Z,11.55
2019-05-29T02:21:14.025Z,11.48
2019-05-29T02:26:20.375Z,11.36
2019-05-29T02:31:29.059Z,11.48
2019-05-29T02:36:34.275Z,11.53
2019-05-29T02:41:39.537Z,11.46
2019-05-29T02:46:44.758Z,11.40
2019-05-29T02:51:50.082Z,11.39
2019-05-29T02:56:55.406Z,11.28
2019-05-29T03:02:00.640Z,11.31
2019-05-29T03:07:05.892Z,11.36
2019-05-29T03:12:11.190Z,11.43
2019-05-29T03:17:16.473Z,11.33
2019-05-29T03:22:21.747Z,11.38
2019-05-29T03:27:27.831Z,11.34
2019-05-29T03:32:42.579Z,11.38
2019-05-29T03:37:40.199Z,11.34
2019-05-29T03:42:45.433Z,11.41
2019-05-29T03:47:50.680Z,11.37
2019-05-29T03:52:56.064Z,11.39
2019-05-29T03:58:01.510Z,11.34
2019-05-29T04:03:06.732Z,11.30
2019-05-29T04:08:13.067Z,11.31
2019-05-29T04:13:18.334Z,11.32
2019-05-29T04:18:25.177Z,11.34
2019-05-29T04:23:35.978Z,11.34
2019-05-29T04:28:41.428Z,11.43
2019-05-29T04:33:46.740Z,11.42
2019-05-29T04:38:51.995Z,11.32
2019-05-29T04:43:57.359Z,11.27
2019-05-29T04:49:02.670Z,11.26
2019-05-29T04:54:08.659Z,11.29
2019-05-29T04:59:15.626Z,11.23
2019-05-29T05:04:20.938Z,11.25
2019-05-29T05:09:26.290Z,11.17
2019-05-29T05:14:33.625Z,11.20
2019-05-29T05:19:40.063Z,11.06
2019-05-29T05:24:45.341Z,11.23
2019-05-29T05:29:52.253Z,11.34
2019-05-29T05:34:57.459Z,11.60
2019-05-29T05:40:02.718Z,11.94
2019-05-29T05:45:08.201Z,12.16
2019-05-29T05:50:13.813Z,12.31
2019-05-29T05:55:19.038Z,12.93
2019-05-29T06:00:35.842Z,13.18
2019-05-29T06:05:42.346Z,13.58
2019-05-29T06:10:51.170Z,13.86
2019-05-29T06:15:55.637Z,14.01
2019-05-29T06:21:01.333Z,14.34
2019-05-29T06:26:06.777Z,14.43
2019-05-29T06:31:12.463Z,14.40
2019-05-29T06:36:17.900Z,14.92
2019-05-29T06:41:23.452Z,14.93
2019-05-29T06:46:29.146Z,15.24
2019-05-29T06:51:35.196Z,15.48
2019-05-29T06:56:40.413Z,15.77
2019-05-29T07:01:45.749Z,15.36
2019-05-29T07:06:51.369Z,15.26
2019-05-29T07:11:57.051Z,14.77
2019-05-29T07:17:02.280Z,14.45
2019-05-29T07:22:07.499Z,14.72
2019-05-29T07:27:13.691Z,14.50
2019-05-29T07:32:19.084Z,15.54
2019-05-29T07:37:24.453Z,15.73
2019-05-29T07:42:29.748Z,16.24
2019-05-29T07:47:35.559Z,16.45
2019-05-29T07:52:41.161Z,17.30
2019-05-29T07:57:47.188Z,17.30
2019-05-29T08:02:52.500Z,17.98
2019-05-29T08:07:57.789Z,18.35
2019-05-29T08:13:03.946Z,18.23
2019-05-29T08:18:09.365Z,18.67
2019-05-29T08:23:14.660Z,18.44
2019-05-29T08:28:22.702Z,18.68
2019-05-29T08:33:28.999Z,18.23
2019-05-29T08:38:34.353Z,18.04
2019-05-29T08:43:39.803Z,17.95
2019-05-29T08:48:45.884Z,18.05
2019-05-29T08:53:53.426Z,17.94
2019-05-29T08:58:59.340Z,18.20
2019-05-29T09:04:05.917Z,17.93
2019-05-29T09:09:11.206Z,18.22
2019-05-29T09:14:16.520Z,18.33
2019-05-29T09:19:22.848Z,18.21
2019-05-29T09:24:28.491Z,18.20
2019-05-29T09:29:33.759Z,18.55
2019-05-29T09:34:38.978Z,18.75
2019-05-29T09:39:44.294Z,18.71
2019-05-29T09:44:49.555Z,18.59
2019-05-29T09:49:55.034Z,18.78
2019-05-29T09:55:00.478Z,18.93
2019-05-29T10:00:06.620Z,18.88
2019-05-29T10:05:12.099Z,19.03
2019-05-29T10:10:19.009Z,19.30
2019-05-29T10:15:24.675Z,19.63
2019-05-29T10:20:29.887Z,19.88
2019-05-29T10:25:35.239Z,19.91
2019-05-29T10:30:42.123Z,20.07
2019-05-29T10:35:49.644Z,20.02
2019-05-29T10:41:05.654Z,19.88
2019-05-29T10:46:02.094Z,19.69
2019-05-29T10:51:07.305Z,19.90
2019-05-29T10:56:12.610Z,20.11
2019-05-29T11:01:17.857Z,19.98
2019-05-29T11:06:23.187Z,19.66
2019-05-29T11:11:28.476Z,19.68
2019-05-29T11:16:33.711Z,19.89
2019-05-29T11:21:38.964Z,20.61
2019-05-29T11:26:44.253Z,20.69
2019-05-29T11:31:50.636Z,20.53
2019-05-29T11:38:40.088Z,21.32
2019-05-29T11:43:45.664Z,21.36
2019-05-29T11:48:51.158Z,21.45
2019-05-29T11:53:57.519Z,21.57
2019-05-29T11:59:03.375Z,22.05
2019-05-29T12:04:24.311Z,21.92
2019-05-29T12:09:31.479Z,22.28
2019-05-29T12:14:24.272Z,23.53
2019-05-29T12:19:32.126Z,24.19
2019-05-29T12:24:37.448Z,24.76
2019-05-29T12:29:44.047Z,25.39
2019-05-29T12:34:53.547Z,26.43
2019-05-29T12:39:57.515Z,27.26
2019-05-29T12:45:04.292Z,27.71
2019-05-29T12:50:11.957Z,28.23
2019-05-29T12:55:17.533Z,26.22
2019-05-29T13:00:23.338Z,26.81
2019-05-29T13:05:29.025Z,28.34
2019-05-29T13:10:35.978Z,30.04
2019-05-29T13:15:41.452Z,29.14
2019-05-29T13:20:48.163Z,28.95
2019-05-29T13:25:53.724Z,28.35
2019-05-29T13:30:59.828Z,31.00
2019-05-29T13:36:06.708Z,30.09
2019-05-29T13:41:12.143Z,29.55
2019-05-29T13:46:17.577Z,31.01
2019-05-29T13:51:23.016Z,27.97
2019-05-29T13:56:29.186Z,28.93
2019-05-29T14:01:34.580Z,30.90
2019-05-29T14:06:41.917Z,31.01
2019-05-29T14:11:48.670Z,31.48
2019-05-29T14:16:54.355Z,32.10
2019-05-29T14:22:01.130Z,32.16
2019-05-29T14:27:07.482Z,27.93
2019-05-29T14:32:13.840Z,29.21
2019-05-29T14:37:19.358Z,28.35
2019-05-29T14:42:24.644Z,28.33
2019-05-29T14:47:30.019Z,30.07
2019-05-29T14:52:35.820Z,31.24
2019-05-29T14:57:41.202Z,32.88
2019-05-29T15:02:46.602Z,31.73
2019-05-29T15:07:52.036Z,33.71
2019-05-29T15:12:58.526Z,36.55
2019-05-29T15:18:04.916Z,34.99
2019-05-29T15:23:11.496Z,35.15
2019-05-29T15:28:17.960Z,35.61
2019-05-29T15:33:23.334Z,35.71
2019-05-29T15:38:29.365Z,35.99
2019-05-29T15:43:34.700Z,36.81
2019-05-29T15:48:40.424Z,36.06
2019-05-29T15:53:47.937Z,36.41
2019-05-29T15:58:53.306Z,31.57
2019-05-29T16:03:58.527Z,29.13
2019-05-29T16:09:05.454Z,26.94
2019-05-29T16:14:10.792Z,25.28
2019-05-29T16:19:16.313Z,24.73
2019-05-29T16:24:23.016Z,24.19
2019-05-29T16:29:29.161Z,22.93
2019-05-29T16:34:34.398Z,22.10
2019-05-29T16:39:39.747Z,21.81
2019-05-29T16:44:45.053Z,21.60
2019-05-29T16:49:50.338Z,21.46
2019-05-29T16:54:55.817Z,21.13
2019-05-29T17:00:01.205Z,20.80
2019-05-29T17:05:06.835Z,20.77
2019-05-29T17:10:16.178Z,20.20
2019-05-29T17:15:22.711Z,20.11
2019-05-29T17:20:44.904Z,19.87
2019-05-29T17:25:51.190Z,19.97
2019-05-29T17:30:56.595Z,19.67
2019-05-29T17:36:01.910Z,19.71
2019-05-29T17:41:07.181Z,19.62
2019-05-29T17:46:12.742Z,19.33
2019-05-29T17:51:18.105Z,19.14
2019-05-29T17:56:34.575Z,19.04
2019-05-29T18:01:30.954Z,19.05
2019-05-29T18:06:37.735Z,18.87
2019-05-29T18:11:47.243Z,19.00
2019-05-29T18:16:50.213Z,18.80
2019-05-29T18:21:55.705Z,18.71
2019-05-29T18:27:02.076Z,18.54
2019-05-29T18:32:07.518Z,18.46
2019-05-29T18:37:13.255Z,18.51
2019-05-29T18:42:20.396Z,18.39
2019-05-29T18:47:27.011Z,18.37
2019-05-29T18:52:32.974Z,18.24
2019-05-29T18:57:38.574Z,18.24
2019-05-29T19:02:43.854Z,18.20
2019-05-29T19:07:49.348Z,18.07
2019-05-29T19:12:55.169Z,17.92
2019-05-29T19:18:00.413Z,17.82
2019-05-29T19:23:05.825Z,17.67
2019-05-29T19:28:11.838Z,17.61
2019-05-29T19:33:18.160Z,17.55
2019-05-29T19:38:23.745Z,17.36
2019-05-29T19:43:30.344Z,17.27
2019-05-29T19:48:35.659Z,17.14
2019-05-29T19:53:42.058Z,16.97
2019-05-29T19:58:47.335Z,16.92
2019-05-29T20:03:52.583Z,16.95
2019-05-29T20:08:58.039Z,16.80
2019-05-29T20:14:07.254Z,16.77
2019-05-29T20:19:10.307Z,16.72
2019-05-29T20:24:15.754Z,16.57
2019-05-29T20:29:21.064Z,16.40
2019-05-29T20:34:26.388Z,16.14
2019-05-29T20:39:32.966Z,16.01
2019-05-29T20:44:38.943Z,15.95
2019-05-29T20:49:47.457Z,15.86
2019-05-29T20:54:51.683Z,15.77
2019-05-29T20:59:57.101Z,15.57
2019-05-29T21:05:02.415Z,15.43
2019-05-29T21:10:09.040Z,15.31
2019-05-29T21:15:14.970Z,15.39
2019-05-29T21:20:21.056Z,15.13
2019-05-29T21:25:26.366Z,15.13
2019-05-29T21:30:31.587Z,14.90
2019-05-29T21:35:37.993Z,14.93
2019-05-29T21:40:44.560Z,14.81
2019-05-29T21:45:50.058Z,14.62
2019-05-29T21:50:55.352Z,14.59
2019-05-29T21:56:00.893Z,14.49
2019-05-29T22:01:07.114Z,14.43
2019-05-29T22:06:12.798Z,14.41
2019-05-29T22:11:18.211Z,14.30
2019-05-29T22:16:23.717Z,14.19
2019-05-29T22:21:29.132Z,14.09
2019-05-29T22:26:35.384Z,14.01
2019-05-29T22:31:40.725Z,14.05
2019-05-29T22:36:46.006Z,14.03
2019-05-29T22:41:51.517Z,13.99
2019-05-29T22:46:58.342Z,14.01
2019-05-29T22:52:03.741Z,14.10
2019-05-29T22:57:09.319Z,14.07
2019-05-29T23:02:14.632Z,14.04
2019-05-29T23:07:19.898Z,14.17
2019-05-29T23:12:25.189Z,14.07
2019-05-29T23:17:31.491Z,14.06
2019-05-29T23:22:38.489Z,13.96
2019-05-29T23:27:43.898Z,13.90
2019-05-29T23:32:49.219Z,13.87
2019-05-29T23:37:55.034Z,13.75
2019-05-29T23:43:01.589Z,13.58
2019-05-29T23:48:06.846Z,13.42
2019-05-29T23:53:12.084Z,13.43
2019-05-29T23:58:17.634Z,13.41
